PILOTS ONLINE: 302    ATC ONLINE: 56

KCWA

Central Wisconsin Airport

Location

IATA CWA
City Mosinee
Country  United States
Latitude 44° 46' 39" N
Longitude 89° 40' 0" W
Elevation 1277 ft
Type Medium Airport

Map

Weather

METAR
2014/10/22 00:45
KCWA 220045Z 00000KT 10SM SKC 06/01 A3024
TAF
2014/10/21 18:36
TAF KCWA 211734Z 2118/2218 09006KT P6SM BKN019 
      TEMPO 2118/2119 SCT019 
     FM211900 10006KT P6SM SKC 
     FM220000 VRB03KT P6SM SKC 
      TEMPO 2209/2212 3SM BR 
     FM221300 13006KT P6SM SCT200

Runways

08/26 7645 ft / 150 ft
17/35 6501 ft / 150 ft

Outbound flights

Callsign Flying to Pilot ATD/STD ETA Aircraft

Inbound flights

Callsign Flying from Pilot ATD ETA Aircraft